Time;durP1;ratioP1;P1;durP2;ratioP2;P2;SDS_P1;SDS_P2;PMS_P1;PMS_P2;Temp;Humidity;BMP_temperature;BMP_pressure;BME280_temperature;BME280_humidity;BME280_pressure;Samples;Min_cycle;Max_cycle;Signal;HPM_P1;HPM_P2
2023/04/21 00:00:32;;;;;;;;;;;;;;;25.81;45.89;96485.20;611541;231;62840;-61
2023/04/21 00:03:00;;;;;;;;;;;;;;;25.82;46.28;96488.69;611879;230;67184;-61
2023/04/21 00:05:28;;;;;;;;;;;;;;;25.81;46.34;96487.08;612740;231;67099;-61
2023/04/21 00:07:55;;;;;;;;;;;;;;;25.79;45.80;96482.03;611644;232;65048;-62
2023/04/21 00:10:23;;;;;;;;;;;;;;;25.79;46.54;96489.31;611551;230;67227;-62
2023/04/21 00:12:50;;;;;;;;;;;;;;;25.79;46.46;96489.31;611403;231;67058;-62
2023/04/21 00:15:17;;;;;;;;;;;;;;;25.77;45.85;96481.55;612037;232;62835;-62
2023/04/21 00:17:45;;;;;;;;;;;;;;;25.76;44.94;96477.28;611711;232;67221;-62
2023/04/21 00:20:13;;;;;;;;;;;;;;;25.77;44.90;96481.55;611907;231;67102;-62
2023/04/21 00:22:40;;;;;;;;;;;;;;;25.75;43.30;96478.37;611583;231;65319;-62
2023/04/21 00:25:08;;;;;;;;;;;;;;;25.75;44.91;96475.68;612379;229;67364;-62
2023/04/21 00:27:36;;;;;;;;;;;;;;;25.74;46.57;96473.31;611725;230;67059;-62
2023/04/21 00:30:04;;;;;;;;;;;;;;;25.73;45.82;96477.09;612003;230;62457;-62
2023/04/21 00:32:32;;;;;;;;;;;;;;;25.72;45.57;96465.55;611755;229;67378;-62
2023/04/21 00:34:59;;;;;;;;;;;;;;;25.71;45.00;96461.28;614567;230;66768;-62
2023/04/21 00:37:27;;;;;;;;;;;;;;;25.72;46.03;96462.06;611674;232;64873;-62
2023/04/21 00:39:54;;;;;;;;;;;;;;;25.71;45.14;96455.11;612315;231;66993;-62
2023/04/21 00:42:22;;;;;;;;;;;;;;;25.70;45.62;96459.71;611543;230;67212;-61
2023/04/21 00:44:50;;;;;;;;;;;;;;;25.69;46.08;96452.72;611467;230;64883;-61
2023/04/21 00:47:18;;;;;;;;;;;;;;;25.68;46.32;96445.77;611436;230;64786;-61
2023/04/21 00:49:46;;;;;;;;;;;;;;;25.68;44.73;96456.53;611430;231;65617;-61
2023/04/21 00:52:15;;;;;;;;;;;;;;;25.66;43.66;96453.36;611816;232;63033;-61
2023/04/21 00:54:43;;;;;;;;;;;;;;;25.66;45.63;96456.84;613784;230;67187;-61
2023/04/21 00:57:11;;;;;;;;;;;;;;;25.65;44.66;96455.27;611428;232;64659;-61
2023/04/21 00:59:38;;;;;;;;;;;;;;;25.64;46.03;96447.48;610850;230;62753;-61
2023/04/21 01:02:06;;;;;;;;;;;;;;;25.63;46.43;96444.02;613001;230;67085;-61
2023/04/21 01:04:39;;;;;;;;;;;;;;;25.64;44.71;96450.18;612853;230;67041;-61
2023/04/21 01:07:04;;;;;;;;;;;;;;;25.62;45.70;96452.42;612113;231;63753;-61
2023/04/21 01:09:32;;;;;;;;;;;;;;;25.62;46.05;96452.42;612459;231;68496;-61
2023/04/21 01:12:07;;;;;;;;;;;;;;;25.61;45.03;96445.43;611685;230;64908;-61
2023/04/21 01:14:36;;;;;;;;;;;;;;;25.61;46.94;96440.05;611353;232;62986;-61
2023/04/21 01:17:04;;;;;;;;;;;;;;;25.60;46.57;96438.48;611261;230;67141;-61
2023/04/21 01:19:36;;;;;;;;;;;;;;;25.59;46.16;96442.26;611515;231;64811;-61
2023/04/21 01:22:03;;;;;;;;;;;;;;;25.58;45.46;96437.99;611754;230;64970;-61
2023/04/21 01:24:38;;;;;;;;;;;;;;;25.57;46.98;96434.52;611445;230;67842;-61
2023/04/21 01:27:10;;;;;;;;;;;;;;;25.56;45.82;96437.51;611357;231;65058;-61
2023/04/21 01:29:38;;;;;;;;;;;;;;;25.56;46.71;96432.91;611426;230;64923;-60
2023/04/21 01:32:09;;;;;;;;;;;;;;;25.55;47.40;96419.80;613293;230;67201;-62
2023/04/21 01:34:37;;;;;;;;;;;;;;;25.54;44.64;96435.15;611956;230;64687;-62
2023/04/21 01:37:05;;;;;;;;;;;;;;;25.53;47.18;96438.14;612064;231;63792;-62
2023/04/21 01:39:33;;;;;;;;;;;;;;;25.54;47.87;96431.67;611800;232;64092;-60
2023/04/21 01:42:01;;;;;;;;;;;;;;;25.52;48.14;96431.97;612724;230;67245;-60
2023/04/21 01:44:28;;;;;;;;;;;;;;;25.50;46.46;96433.39;613750;231;65016;-60
2023/04/21 01:46:57;;;;;;;;;;;;;;;25.50;43.59;96425.32;607546;230;43749;-61
2023/04/21 01:49:25;;;;;;;;;;;;;;;25.49;46.26;96429.91;611856;230;64383;-61
2023/04/21 01:51:53;;;;;;;;;;;;;;;25.49;46.14;96431.82;611669;232;66073;-61
2023/04/21 01:54:21;;;;;;;;;;;;;;;25.48;45.76;96431.00;611694;230;66800;-61
2023/04/21 01:56:48;;;;;;;;;;;;;;;25.46;47.39;96422.47;611219;232;67046;-61
2023/04/21 01:59:16;;;;;;;;;;;;;;;25.45;45.30;96426.25;611623;230;63003;-61
2023/04/21 02:01:44;;;;;;;;;;;;;;;25.44;45.23;96425.47;611338;232;64599;-61
2023/04/21 02:04:11;;;;;;;;;;;;;;;25.44;46.53;96428.16;611557;230;66643;-61
2023/04/21 02:06:39;;;;;;;;;;;;;;;25.44;47.25;96425.47;612992;227;64874;-61
2023/04/21 02:09:07;;;;;;;;;;;;;;;25.43;47.64;96423.89;618691;228;64821;-61
2023/04/21 02:11:34;;;;;;;;;;;;;;;25.42;43.05;96416.91;618393;229;67070;-61
2023/04/21 02:14:02;;;;;;;;;;;;;;;25.42;47.47;96422.29;618315;229;65358;-61
2023/04/21 02:16:30;;;;;;;;;;;;;;;25.41;47.01;96425.31;618348;228;66881;-61
2023/04/21 02:18:58;;;;;;;;;;;;;;;25.40;46.10;96419.14;607495;228;72210;-61
2023/04/21 02:21:27;;;;;;;;;;;;;;;25.39;47.64;96425.61;618709;229;65024;-61
2023/04/21 02:23:55;;;;;;;;;;;;;;;25.39;47.11;96422.92;618714;229;67518;-61
2023/04/21 02:26:22;;;;;;;;;;;;;;;25.38;45.97;96434.80;617969;229;66986;-61
2023/04/21 02:28:50;;;;;;;;;;;;;;;25.38;47.75;96428.63;614134;229;62668;-61
2023/04/21 02:31:18;;;;;;;;;;;;;;;25.35;46.82;96430.05;611137;231;67955;-61
2023/04/21 02:33:45;;;;;;;;;;;;;;;25.36;48.73;96428.94;611152;230;66989;-61
2023/04/21 02:36:13;;;;;;;;;;;;;;;25.35;47.31;96437.33;611569;232;63896;-61
2023/04/21 02:38:40;;;;;;;;;;;;;;;25.33;46.48;96437.62;611403;230;64862;-61
2023/04/21 02:41:10;;;;;;;;;;;;;;;25.34;46.88;96444.58;611775;230;66914;-61
2023/04/21 02:43:37;;;;;;;;;;;;;;;25.32;46.51;96441.44;611600;232;64992;-61
2023/04/21 02:46:08;;;;;;;;;;;;;;;25.33;47.81;96442.22;611757;231;64630;-61
2023/04/21 02:48:36;;;;;;;;;;;;;;;25.33;46.82;96447.60;611377;232;67369;-60
2023/04/21 02:51:03;;;;;;;;;;;;;;;25.32;47.39;96443.31;611906;230;66174;-61
2023/04/21 02:53:31;;;;;;;;;;;;;;;25.30;47.58;96440.95;612319;230;67305;-61
2023/04/21 02:56:01;;;;;;;;;;;;;;;25.30;46.59;96445.54;611736;230;66826;-61
2023/04/21 02:58:30;;;;;;;;;;;;;;;25.28;47.51;96445.84;611607;230;46272;-61
2023/04/21 03:00:57;;;;;;;;;;;;;;;25.28;46.99;96442.36;606215;230;64941;-61
2023/04/21 03:03:25;;;;;;;;;;;;;;;25.27;48.45;96440.79;611498;230;64577;-61
2023/04/21 03:06:00;;;;;;;;;;;;;;;25.26;47.55;96439.97;611356;232;64902;-61
2023/04/21 03:08:27;;;;;;;;;;;;;;;25.25;47.25;96441.09;611211;230;67305;-60
2023/04/21 03:10:55;;;;;;;;;;;;;;;25.24;47.21;96450.27;613582;230;67151;-60
2023/04/21 03:13:23;;;;;;;;;;;;;;;25.24;48.06;96447.58;614810;230;64971;-60
2023/04/21 03:15:51;;;;;;;;;;;;;;;25.23;47.45;96454.05;612888;231;67420;-60
2023/04/21 03:18:19;;;;;;;;;;;;;;;25.22;47.03;96450.57;612460;231;64478;-60
2023/04/21 03:20:46;;;;;;;;;;;;;;;25.21;45.71;96456.28;611451;230;65865;-61
2023/04/21 03:23:14;;;;;;;;;;;;;;;25.21;47.58;96459.75;611655;230;67283;-61
2023/04/21 03:25:42;;;;;;;;;;;;;;;25.19;47.79;96456.58;611692;231;65335;-61
2023/04/21 03:28:09;;;;;;;;;;;;;;;25.18;46.85;96451.50;612819;231;63093;-60
2023/04/21 03:30:37;;;;;;;;;;;;;;;25.19;49.97;96453.10;611769;230;66989;-60
2023/04/21 03:33:05;;;;;;;;;;;;;;;25.18;48.55;96454.19;614586;229;66889;-60
2023/04/21 03:35:33;;;;;;;;;;;;;;;25.17;46.02;96457.98;611769;230;64954;-60
2023/04/21 03:38:00;;;;;;;;;;;;;;;25.17;48.25;96452.61;611773;230;65084;-60
2023/04/21 03:40:28;;;;;;;;;;;;;;;25.16;48.13;96456.41;611459;230;64934;-60
2023/04/21 03:42:57;;;;;;;;;;;;;;;25.14;47.67;96461.27;611462;231;65026;-60
2023/04/21 03:45:25;;;;;;;;;;;;;;;25.14;47.76;96463.97;611816;231;67013;-60
2023/04/21 03:47:55;;;;;;;;;;;;;;;25.14;48.73;96458.59;611388;232;67846;-60
2023/04/21 03:50:23;;;;;;;;;;;;;;;25.13;49.00;96465.86;612814;230;62974;-61
2023/04/21 03:52:50;;;;;;;;;;;;;;;25.12;48.19;96460.78;611927;230;64911;-61
2023/04/21 03:55:18;;;;;;;;;;;;;;;25.11;47.55;96475.34;611655;230;66853;-61
2023/04/21 03:57:45;;;;;;;;;;;;;;;25.10;47.56;96469.18;612727;230;64863;-61
2023/04/21 04:00:13;;;;;;;;;;;;;;;25.09;47.86;96472.16;613026;230;67261;-61
2023/04/21 04:02:40;;;;;;;;;;;;;;;25.09;49.81;96472.95;611459;230;67608;-61
2023/04/21 04:05:09;;;;;;;;;;;;;;;25.09;48.26;96477.55;611965;231;65208;-61
2023/04/21 04:07:36;;;;;;;;;;;;;;;25.09;49.02;96477.55;612474;231;67225;-61
2023/04/21 04:10:04;;;;;;;;;;;;;;;25.07;45.76;96468.98;612478;230;67045;-61
2023/04/21 04:12:32;;;;;;;;;;;;;;;25.07;48.93;96479.73;611506;231;63041;-61
2023/04/21 04:15:00;;;;;;;;;;;;;;;25.06;49.02;96487.02;614666;229;65198;-61
2023/04/21 04:17:27;;;;;;;;;;;;;;;25.05;48.88;96490.82;613240;230;66698;-60
2023/04/21 04:19:55;;;;;;;;;;;;;;;25.04;48.08;96494.59;611632;230;65037;-61
2023/04/21 04:22:22;;;;;;;;;;;;;;;25.04;48.27;96502.66;611394;232;67035;-61
2023/04/21 04:24:50;;;;;;;;;;;;;;;25.02;48.16;96494.13;613572;230;67425;-60
2023/04/21 04:27:19;;;;;;;;;;;;;;;25.01;49.25;96487.94;611456;230;65101;-60
2023/04/21 04:29:48;;;;;;;;;;;;;;;25.01;48.49;96489.84;611460;230;67213;-62
2023/04/21 04:32:16;;;;;;;;;;;;;;;25.00;48.18;96494.42;611379;230;67234;-61
2023/04/21 04:34:44;;;;;;;;;;;;;;;25.00;49.22;96497.12;611949;231;65012;-61
2023/04/21 04:37:12;;;;;;;;;;;;;;;24.98;47.40;96499.31;612804;230;68118;-61
2023/04/21 04:39:39;;;;;;;;;;;;;;;24.98;48.60;96498.52;611689;230;67022;-61
2023/04/21 04:42:10;;;;;;;;;;;;;;;24.98;48.66;96502.00;611555;230;64881;-61
2023/04/21 04:44:40;;;;;;;;;;;;;;;24.97;48.15;96502.33;611414;230;66968;-62
2023/04/21 04:47:07;;;;;;;;;;;;;;;24.96;48.48;96495.34;611460;231;67750;-61
2023/04/21 04:49:35;;;;;;;;;;;;;;;24.95;47.39;96499.94;611759;231;65029;-62
2023/04/21 04:52:02;;;;;;;;;;;;;;;24.96;49.06;96509.60;611663;231;67520;-61
2023/04/21 04:54:30;;;;;;;;;;;;;;;24.94;46.54;96503.73;611506;232;66859;-61
2023/04/21 04:56:59;;;;;;;;;;;;;;;24.93;49.16;96506.72;611683;230;62668;-62
2023/04/21 04:59:27;;;;;;;;;;;;;;;24.92;48.57;96503.24;611755;232;67266;-61
2023/04/21 05:01:54;;;;;;;;;;;;;;;24.91;47.94;96503.54;611384;232;67071;-61
2023/04/21 05:04:22;;;;;;;;;;;;;;;24.92;50.75;96505.14;611910;230;65032;-61
2023/04/21 05:06:49;;;;;;;;;;;;;;;24.89;49.29;96498.48;611273;230;64875;-61
2023/04/21 05:09:17;;;;;;;;;;;;;;;24.88;48.41;96499.59;611471;230;67059;-61
2023/04/21 05:11:44;;;;;;;;;;;;;;;24.88;47.75;96504.98;611912;231;65070;-61
2023/04/21 05:14:12;;;;;;;;;;;;;;;24.87;49.10;96507.95;611820;231;67259;-61
2023/04/21 05:16:39;;;;;;;;;;;;;;;24.86;48.27;96515.23;611340;230;64877;-61
2023/04/21 05:19:07;;;;;;;;;;;;;;;24.86;48.55;96514.45;611920;231;63005;-61
2023/04/21 05:21:34;;;;;;;;;;;;;;;24.85;49.52;96513.62;611387;230;64971;-61
2023/04/21 05:24:02;;;;;;;;;;;;;;;24.85;47.68;96513.62;611795;230;64934;-61
2023/04/21 05:26:30;;;;;;;;;;;;;;;24.84;49.60;96513.95;611540;232;62884;-61
2023/04/21 05:28:58;;;;;;;;;;;;;;;24.84;49.43;96516.64;611930;231;67359;-61
2023/04/21 05:31:25;;;;;;;;;;;;;;;24.83;48.09;96512.34;612481;230;66802;-61
2023/04/21 05:33:53;;;;;;;;;;;;;;;24.83;48.42;96512.34;611855;230;65029;-61
2023/04/21 05:36:20;;;;;;;;;;;;;;;24.81;49.55;96509.98;611505;230;67252;-61
2023/04/21 05:38:48;;;;;;;;;;;;;;;24.81;49.22;96507.30;611722;230;67367;-60
2023/04/21 05:41:15;;;;;;;;;;;;;;;24.79;47.92;96521.03;611609;231;65112;-60
2023/04/21 05:43:43;;;;;;;;;;;;;;;24.80;48.57;96516.47;611733;231;67272;-61
2023/04/21 05:46:10;;;;;;;;;;;;;;;24.79;49.04;96522.93;611777;230;66878;-60
2023/04/21 05:48:39;;;;;;;;;;;;;;;24.77;49.52;96515.19;611408;231;65035;-60
2023/04/21 05:51:10;;;;;;;;;;;;;;;24.76;48.76;96515.48;611980;231;67292;-62
2023/04/21 05:53:38;;;;;;;;;;;;;;;24.76;49.41;96523.55;611774;232;66843;-60
2023/04/21 05:56:06;;;;;;;;;;;;;;;24.75;48.15;96511.22;611690;230;64993;-60
2023/04/21 05:58:34;;;;;;;;;;;;;;;24.76;48.99;96523.55;611369;230;64461;-59
2023/04/21 06:01:02;;;;;;;;;;;;;;;24.74;44.36;96514.99;611330;230;66804;-59
2023/04/21 06:03:33;;;;;;;;;;;;;;;24.73;48.17;96511.52;611531;231;65073;-60
2023/04/21 06:06:02;;;;;;;;;;;;;;;24.72;47.74;96511.84;611694;231;67245;-63
2023/04/21 06:08:29;;;;;;;;;;;;;;;24.72;47.86;96509.16;611896;231;66818;-62
2023/04/21 06:10:57;;;;;;;;;;;;;;;24.71;45.80;96505.65;613808;230;65088;-62
2023/04/21 06:13:26;;;;;;;;;;;;;;;24.71;49.18;96502.96;611761;231;66941;-60
2023/04/21 06:15:54;;;;;;;;;;;;;;;24.70;46.99;96497.91;612000;230;66904;-60
2023/04/21 06:18:22;;;;;;;;;;;;;;;24.70;48.80;96505.97;611808;232;65142;-60
2023/04/21 06:20:50;;;;;;;;;;;;;;;24.71;47.19;96499.48;611476;231;67308;-59
2023/04/21 06:23:18;;;;;;;;;;;;;;;24.70;48.20;96500.59;611867;231;65061;-59
2023/04/21 06:25:45;;;;;;;;;;;;;;;24.69;45.74;96507.88;614205;230;62959;-61
2023/04/21 06:28:13;;;;;;;;;;;;;;;24.70;47.98;96504.08;612078;230;64970;-59
2023/04/21 06:30:41;;;;;;;;;;;;;;;24.69;47.06;96507.05;611165;232;64570;-61
2023/04/21 06:33:08;;;;;;;;;;;;;;;24.69;46.91;96499.00;612133;231;62782;-59
2023/04/21 06:35:35;;;;;;;;;;;;;;;24.68;48.89;96497.42;611587;232;67369;-59
2023/04/21 06:38:03;;;;;;;;;;;;;;;24.68;48.37;96502.80;611423;231;65157;-61
2023/04/21 06:40:30;;;;;;;;;;;;;;;24.68;48.60;96497.42;613414;231;63071;-59
2023/04/21 06:42:58;;;;;;;;;;;;;;;24.68;48.57;96500.10;613869;230;65029;-60
2023/04/21 06:45:25;;;;;;;;;;;;;;;24.67;45.79;96503.91;612706;229;64679;-59
2023/04/21 06:47:53;;;;;;;;;;;;;;;24.67;47.63;96501.22;611936;231;62947;-60
2023/04/21 06:50:20;;;;;;;;;;;;;;;24.67;47.55;96501.22;611331;230;65074;-59
2023/04/21 06:52:48;;;;;;;;;;;;;;;24.67;48.29;96502.00;611334;231;67354;-59
2023/04/21 06:55:15;;;;;;;;;;;;;;;24.68;46.55;96500.89;611999;231;64969;-60
2023/04/21 06:57:43;;;;;;;;;;;;;;;24.69;47.94;96509.73;612618;230;64862;-60
2023/04/21 07:00:11;;;;;;;;;;;;;;;24.69;48.27;96515.93;614965;229;64909;-60
2023/04/21 07:02:38;;;;;;;;;;;;;;;24.70;46.63;96514.82;613742;230;64893;-59
2023/04/21 07:05:06;;;;;;;;;;;;;;;24.70;46.06;96514.82;614675;230;67243;-59
2023/04/21 07:07:33;;;;;;;;;;;;;;;24.70;46.57;96519.41;613403;230;66849;-59
2023/04/21 07:10:01;;;;;;;;;;;;;;;24.71;48.58;96511.02;611071;232;65447;-59
2023/04/21 07:12:28;;;;;;;;;;;;;;;24.71;46.52;96516.39;611082;231;66720;-59
2023/04/21 07:14:56;;;;;;;;;;;;;;;24.72;46.65;96523.38;611421;232;65424;-59
2023/04/21 07:17:23;;;;;;;;;;;;;;;24.75;46.35;96519.28;611111;230;64141;-59
2023/04/21 07:19:51;;;;;;;;;;;;;;;24.75;47.88;96508.53;610947;231;67074;-59
2023/04/21 07:22:18;;;;;;;;;;;;;;;24.74;47.50;96521.16;611149;231;66797;-59
2023/04/21 07:24:45;;;;;;;;;;;;;;;24.75;46.40;96517.38;610989;230;65109;-59
2023/04/21 07:27:13;;;;;;;;;;;;;;;24.75;47.74;96512.01;611047;231;64614;-60
2023/04/21 07:29:40;;;;;;;;;;;;;;;24.76;46.20;96518.96;611214;230;64795;-59
2023/04/21 07:32:08;;;;;;;;;;;;;;;24.76;45.83;96518.17;611475;232;62894;-59
2023/04/21 07:34:35;;;;;;;;;;;;;;;24.74;46.31;96515.78;611104;231;65421;-61
2023/04/21 07:37:03;;;;;;;;;;;;;;;24.73;45.44;96519.58;611276;231;66752;-59
2023/04/21 07:39:30;;;;;;;;;;;;;;;24.73;44.83;96524.16;611519;231;65055;-59
2023/04/21 07:41:58;;;;;;;;;;;;;;;24.74;46.97;96520.37;612391;231;66935;-59
2023/04/21 07:44:27;;;;;;;;;;;;;;;24.73;46.11;96519.58;613404;231;66866;-64
2023/04/21 07:46:54;;;;;;;;;;;;;;;24.74;44.62;96514.99;611524;231;63096;-59
2023/04/21 07:49:22;;;;;;;;;;;;;;;24.75;44.83;96513.91;611553;232;65296;-59
2023/04/21 07:51:49;;;;;;;;;;;;;;;24.76;45.69;96516.27;611362;231;66851;-59
2023/04/21 07:54:17;;;;;;;;;;;;;;;24.77;47.11;96514.38;611158;230;65005;-60
2023/04/21 07:56:44;;;;;;;;;;;;;;;24.79;44.16;96522.93;610988;232;64661;-59
2023/04/21 07:59:12;;;;;;;;;;;;;;;24.77;44.36;96523.25;611826;231;65116;-58
2023/04/21 08:01:39;;;;;;;;;;;;;;;24.79;46.23;96526.41;611218;232;65051;-58
2023/04/21 08:04:07;;;;;;;;;;;;;;;24.80;46.76;96528.02;611323;231;66958;-58
2023/04/21 08:06:34;;;;;;;;;;;;;;;24.80;45.91;96524.53;611888;231;67178;-58
2023/04/21 08:09:01;;;;;;;;;;;;;;;24.82;47.19;96522.31;610873;231;70848;-59
2023/04/21 08:11:30;;;;;;;;;;;;;;;24.83;47.53;96520.41;611437;230;66913;-59
2023/04/21 08:13:57;;;;;;;;;;;;;;;24.83;47.70;96517.72;611807;231;67639;-59
2023/04/21 08:16:24;;;;;;;;;;;;;;;24.84;47.98;96525.49;611629;231;65093;-59
2023/04/21 08:18:52;;;;;;;;;;;;;;;24.84;47.36;96514.74;610983;232;66940;-58
2023/04/21 08:21:19;;;;;;;;;;;;;;;24.84;48.30;96514.74;611378;230;66906;-58
2023/04/21 08:23:47;;;;;;;;;;;;;;;24.86;47.97;96512.55;611617;231;65115;-58
2023/04/21 08:26:15;;;;;;;;;;;;;;;24.87;46.31;96510.64;611053;231;66507;-59
2023/04/21 08:28:42;;;;;;;;;;;;;;;24.88;46.37;96513.04;611407;231;64589;-59
2023/04/21 08:31:10;;;;;;;;;;;;;;;24.91;49.30;96512.42;611272;231;63086;-58
2023/04/21 08:33:37;;;;;;;;;;;;;;;24.91;49.34;96511.60;611451;231;65016;-58
2023/04/21 08:36:05;;;;;;;;;;;;;;;24.92;47.45;96515.89;611706;231;66762;-59
2023/04/21 08:38:34;;;;;;;;;;;;;;;24.91;46.98;96515.11;611440;232;62974;-59
2023/04/21 08:41:03;;;;;;;;;;;;;;;24.92;46.89;96524.75;612025;231;67064;-59
2023/04/21 08:43:30;;;;;;;;;;;;;;;24.94;43.96;96519.08;611562;231;66823;-59
2023/04/21 08:45:59;;;;;;;;;;;;;;;24.95;47.97;96516.06;611227;232;65075;-59
2023/04/21 08:48:27;;;;;;;;;;;;;;;24.94;44.99;96522.55;611400;231;67011;-59
2023/04/21 08:50:55;;;;;;;;;;;;;;;24.96;47.18;96512.29;611907;231;66829;-59
2023/04/21 08:53:22;;;;;;;;;;;;;;;24.98;48.12;96520.03;611503;231;65065;-58
2023/04/21 08:55:54;;;;;;;;;;;;;;;24.98;46.17;96520.81;612183;231;66903;-59
2023/04/21 08:58:22;;;;;;;;;;;;;;;24.99;47.56;96525.11;611992;231;66795;-60
2023/04/21 09:00:50;;;;;;;;;;;;;;;25.00;47.21;96524.00;611610;231;63104;-62
2023/04/21 09:03:25;;;;;;;;;;;;;;;25.01;47.84;96530.16;611733;231;64642;-60
2023/04/21 09:06:04;;;;;;;;;;;;;;;25.02;47.14;96526.39;612307;231;66783;-58
2023/04/21 09:08:31;;;;;;;;;;;;;;;25.02;45.82;96516.42;611436;231;65259;-58
2023/04/21 09:11:00;;;;;;;;;;;;;;;25.03;45.91;96522.59;611085;231;66917;-58
2023/04/21 09:13:31;;;;;;;;;;;;;;;25.03;47.99;96518.00;611258;232;66546;-60
2023/04/21 09:15:59;;;;;;;;;;;;;;;25.03;46.44;96522.59;611390;230;65025;-60
2023/04/21 09:18:29;;;;;;;;;;;;;;;25.03;47.16;96525.28;611312;232;67009;-60
2023/04/21 09:21:01;;;;;;;;;;;;;;;25.03;47.83;96527.97;611055;231;65023;-61
2023/04/21 09:23:28;;;;;;;;;;;;;;;25.03;45.36;96522.59;610516;231;65035;-59
2023/04/21 09:25:56;;;;;;;;;;;;;;;25.05;46.81;96524.98;611000;232;66934;-59
2023/04/21 09:28:25;;;;;;;;;;;;;;;25.05;47.58;96522.30;611466;231;66813;-59
2023/04/21 09:30:54;;;;;;;;;;;;;;;25.05;47.08;96530.36;610752;232;63013;-60
2023/04/21 09:33:22;;;;;;;;;;;;;;;25.05;48.48;96520.39;611423;231;64227;-60
2023/04/21 09:35:50;;;;;;;;;;;;;;;25.05;47.24;96524.98;612139;231;64529;-61
2023/04/21 09:38:17;;;;;;;;;;;;;;;25.06;46.49;96521.18;611893;231;65143;-63
2023/04/21 09:40:45;;;;;;;;;;;;;;;25.06;46.59;96511.22;611008;231;67018;-61
2023/04/21 09:43:12;;;;;;;;;;;;;;;25.06;46.27;96518.49;610997;231;67039;-60
2023/04/21 09:45:40;;;;;;;;;;;;;;;25.07;45.44;96520.06;611247;232;64991;-61
2023/04/21 09:48:09;;;;;;;;;;;;;;;25.07;47.57;96517.37;611050;231;67217;-61
2023/04/21 09:50:37;;;;;;;;;;;;;;;25.05;46.33;96508.85;611023;231;66813;-60
2023/04/21 09:53:05;;;;;;;;;;;;;;;25.06;46.04;96515.80;613372;230;65084;-60
2023/04/21 09:55:34;;;;;;;;;;;;;;;25.06;46.73;96508.52;611412;232;66956;-61
2023/04/21 09:58:05;;;;;;;;;;;;;;;25.06;46.26;96505.84;611177;231;64713;-61
2023/04/21 10:00:38;;;;;;;;;;;;;;;25.07;43.45;96517.37;611648;231;65058;-63
2023/04/21 10:03:03;;;;;;;;;;;;;;;25.08;45.83;96510.92;611961;230;66903;-60
2023/04/21 10:05:31;;;;;;;;;;;;;;;25.07;46.00;96510.10;613224;231;66521;-61
2023/04/21 10:07:59;;;;;;;;;;;;;;;25.09;47.19;96504.42;611344;231;65053;-60
2023/04/21 10:10:34;;;;;;;;;;;;;;;25.06;47.20;96508.52;611361;231;66674;-60
2023/04/21 10:12:58;;;;;;;;;;;;;;;25.08;47.42;96497.47;613658;231;66547;-61
2023/04/21 10:15:31;;;;;;;;;;;;;;;25.08;46.46;96498.27;612733;231;65121;-61
2023/04/21 10:18:18;;;;;;;;;;;;;;;25.07;47.30;96496.66;611241;231;64351;-60
2023/04/21 10:20:53;;;;;;;;;;;;;;;25.08;47.08;96492.89;611003;232;64429;-60
2023/04/21 10:23:28;;;;;;;;;;;;;;;25.07;47.21;96485.91;610960;231;65046;-61
2023/04/21 10:26:02;;;;;;;;;;;;;;;25.08;47.38;96492.89;608732;232;64386;-62
2023/04/21 10:28:44;;;;;;;;;;;;;;;25.07;46.06;96488.59;612033;230;65281;-61
2023/04/21 10:31:19;;;;;;;;;;;;;;;25.07;46.21;96485.12;611535;231;65236;-61
2023/04/21 10:34:07;;;;;;;;;;;;;;;25.09;46.89;96496.36;610906;231;64809;-61
2023/04/21 10:36:50;;;;;;;;;;;;;;;25.09;46.47;96480.23;610999;231;65250;-61
2023/04/21 10:39:28;;;;;;;;;;;;;;;25.08;45.25;96484.82;610812;231;65254;-61
2023/04/21 10:42:01;;;;;;;;;;;;;;;25.09;46.16;96482.92;611992;231;67028;-61
2023/04/21 10:44:27;;;;;;;;;;;;;;;25.09;46.80;96474.85;611219;231;66772;-61
2023/04/21 10:46:56;;;;;;;;;;;;;;;25.09;47.28;96469.47;611569;230;65908;-61
2023/04/21 10:49:29;;;;;;;;;;;;;;;25.09;47.83;96469.47;610901;232;66960;-61
2023/04/21 10:52:04;;;;;;;;;;;;;;;25.10;47.33;96473.73;611162;232;67010;-61
2023/04/21 10:54:40;;;;;;;;;;;;;;;25.10;46.81;96471.05;611423;231;64999;-61
2023/04/21 10:57:10;;;;;;;;;;;;;;;25.09;47.07;96462.20;605203;230;64131;-61
2023/04/21 10:59:39;;;;;;;;;;;;;;;25.10;46.09;96463.80;613282;231;66857;-61
2023/04/21 11:02:07;;;;;;;;;;;;;;;25.12;45.26;96464.27;613336;231;63821;-61
2023/04/21 11:04:35;;;;;;;;;;;;;;;25.14;45.18;96461.27;612433;231;65038;-61
2023/04/21 11:07:12;;;;;;;;;;;;;;;25.14;46.11;96470.13;611338;231;66854;-61
2023/04/21 11:09:41;;;;;;;;;;;;;;;25.14;47.39;96475.50;611146;232;65115;-60
2023/04/21 11:12:09;;;;;;;;;;;;;;;25.15;46.06;96473.63;611623;231;66961;-61
2023/04/21 11:14:37;;;;;;;;;;;;;;;25.15;44.93;96469.05;611022;232;64625;-61
2023/04/21 11:17:06;;;;;;;;;;;;;;;25.16;46.26;96464.48;610774;231;65085;-60
2023/04/21 11:19:34;;;;;;;;;;;;;;;25.16;45.26;96456.41;611587;231;67336;-60
2023/04/21 11:22:03;;;;;;;;;;;;;;;25.16;46.70;96442.97;611755;231;67268;-60
2023/04/21 11:24:31;;;;;;;;;;;;;;;25.16;44.65;96448.34;611531;232;65089;-60
2023/04/21 11:27:00;;;;;;;;;;;;;;;25.15;42.31;96450.22;611432;231;65161;-61
2023/04/21 11:29:31;;;;;;;;;;;;;;;25.16;44.01;96454.52;610971;231;64784;-61
2023/04/21 11:31:59;;;;;;;;;;;;;;;25.17;40.95;96458.77;611147;232;61858;-60
2023/04/21 11:34:26;;;;;;;;;;;;;;;25.19;46.05;96459.27;610855;232;67346;-60
2023/04/21 11:36:55;;;;;;;;;;;;;;;25.18;44.45;96452.31;611175;230;67064;-63
2023/04/21 11:39:22;;;;;;;;;;;;;;;25.19;46.25;96456.58;612032;231;65041;-62
2023/04/21 11:41:51;;;;;;;;;;;;;;;25.17;42.36;96457.98;611241;232;67203;-61
2023/04/21 11:44:32;;;;;;;;;;;;;;;25.17;46.98;96447.23;611321;232;64499;-61
2023/04/21 11:46:59;;;;;;;;;;;;;;;25.14;44.79;96439.77;610843;232;65112;-62
2023/04/21 11:49:29;;;;;;;;;;;;;;;25.15;46.06;96444.05;610831;231;67275;-65
2023/04/21 11:51:56;;;;;;;;;;;;;;;25.14;45.21;96432.48;611715;231;67308;-62
2023/04/21 11:54:24;;;;;;;;;;;;;;;25.14;44.49;96437.08;611862;231;65115;-62
2023/04/21 11:56:53;;;;;;;;;;;;;;;25.15;44.36;96438.68;610905;231;67265;-62
2023/04/21 11:59:28;;;;;;;;;;;;;;;25.14;44.71;96432.48;611539;232;67124;-64
2023/04/21 12:01:53;;;;;;;;;;;;;;;25.13;45.91;96433.60;605794;232;65089;-62
2023/04/21 12:04:22;;;;;;;;;;;;;;;25.13;44.94;96436.29;612849;229;67311;-61
2023/04/21 12:07:00;;;;;;;;;;;;;;;25.16;46.36;96429.53;611995;231;67145;-62
2023/04/21 12:09:28;;;;;;;;;;;;;;;25.19;45.90;96426.21;610977;232;65021;-61
2023/04/21 12:11:57;;;;;;;;;;;;;;;25.24;46.67;96426.07;611181;232;64712;-62
2023/04/21 12:14:28;;;;;;;;;;;;;;;25.27;47.10;96428.13;610927;231;67056;-61
2023/04/21 12:16:56;;;;;;;;;;;;;;;25.28;47.88;96426.23;612361;231;65116;-61
2023/04/21 12:19:25;;;;;;;;;;;;;;;25.30;45.87;96427.50;610975;231;67506;-61
2023/04/21 12:21:55;;;;;;;;;;;;;;;25.32;45.83;96427.98;611197;231;66850;-61
2023/04/21 12:24:22;;;;;;;;;;;;;;;25.34;46.55;96430.34;611097;232;65157;-61
2023/04/21 12:26:52;;;;;;;;;;;;;;;25.35;47.72;96427.36;610065;231;64889;-61
2023/04/21 12:29:19;;;;;;;;;;;;;;;25.35;47.12;96427.36;610335;231;64952;-61
2023/04/21 12:31:47;;;;;;;;;;;;;;;25.35;46.71;96424.67;611487;231;63879;-60
2023/04/21 12:34:14;;;;;;;;;;;;;;;25.36;46.98;96414.70;605180;233;68668;-61
2023/04/21 12:36:42;;;;;;;;;;;;;;;25.35;47.00;96419.29;611342;231;64864;-60
2023/04/21 12:39:12;;;;;;;;;;;;;;;25.35;47.71;96416.59;610747;232;62940;-61
2023/04/21 12:41:41;;;;;;;;;;;;;;;25.37;47.16;96414.39;611634;231;46576;-61
2023/04/21 12:44:09;;;;;;;;;;;;;;;25.38;47.70;96415.97;611208;232;66844;-61
2023/04/21 12:46:37;;;;;;;;;;;;;;;25.38;47.58;96410.59;611254;232;62962;-61
2023/04/21 12:49:06;;;;;;;;;;;;;;;25.38;47.21;96407.90;610774;231;64979;-62
2023/04/21 12:51:34;;;;;;;;;;;;;;;25.39;47.26;96414.06;610585;230;64938;-61
2023/04/21 12:54:01;;;;;;;;;;;;;;;25.34;47.46;96408.83;610381;230;62737;-61